Time;durP1;ratioP1;P1;durP2;ratioP2;P2;SDS_P1;SDS_P2;PMS_P1;PMS_P2;Temp;Humidity;BMP_temperature;BMP_pressure;BME280_temperature;BME280_humidity;BME280_pressure;Samples;Min_cycle;Max_cycle;Signal;HPM_P1;HPM_P2
2023/05/09 00:00:50;;;;;;;79.43;29.55;;;;;;;14.68;100.00;101727.75;6084040;23;20014;-56
2023/05/09 00:03:16;;;;;;;81.53;29.08;;;;;;;14.70;100.00;101720.81;6086198;23;20669;-54
2023/05/09 00:05:41;;;;;;;79.97;29.55;;;;;;;14.69;100.00;101724.28;6089225;23;20044;-70
2023/05/09 00:08:06;;;;;;;79.68;29.75;;;;;;;14.64;100.00;101718.03;6079804;23;20025;-71
2023/05/09 00:13:04;;;;;;;80.75;29.73;;;;;;;14.52;100.00;101707.28;6085801;23;20022;-54
2023/05/09 00:15:30;;;;;;;77.10;29.42;;;;;;;14.49;100.00;101709.84;6077445;23;20724;-70
2023/05/09 00:17:56;;;;;;;81.85;29.45;;;;;;;14.49;100.00;101715.94;6075108;23;20458;-70
2023/05/09 00:20:21;;;;;;;76.85;29.92;;;;;;;14.50;100.00;101709.88;6083970;23;20525;-54
2023/05/09 00:22:46;;;;;;;79.78;30.27;;;;;;;14.53;100.00;101711.69;6086817;23;20081;-70
2023/05/09 00:25:12;;;;;;;75.13;29.17;;;;;;;14.56;100.00;101709.13;6082426;23;20014;-70
2023/05/09 00:30:12;;;;;;;74.50;28.67;;;;;;;14.55;100.00;101707.34;6090751;23;20030;-54
2023/05/09 00:32:40;;;;;;;70.57;27.02;;;;;;;14.55;100.00;101704.72;6077118;23;20023;-54
2023/05/09 00:35:06;;;;;;;67.35;26.65;;;;;;;14.55;100.00;101694.22;6114419;23;20109;-70
2023/05/09 00:37:31;;;;;;;63.55;26.33;;;;;;;14.56;100.00;101694.25;6090688;23;20528;-56
2023/05/09 00:42:26;;;;;;;64.13;25.05;;;;;;;14.58;100.00;101683.78;6075425;23;20026;-54
2023/05/09 00:47:23;;;;;;;67.32;26.02;;;;;;;14.51;100.00;101689.75;6061366;23;20038;-70
2023/05/09 00:49:49;;;;;;;67.72;25.65;;;;;;;14.44;100.00;101694.00;6085286;23;20426;-54
2023/05/09 00:52:14;;;;;;;66.57;26.27;;;;;;;14.38;100.00;101683.38;6089013;23;20021;-54
2023/05/09 00:54:39;;;;;;;70.43;27.35;;;;;;;14.34;100.00;101684.16;6090910;23;20383;-70
2023/05/09 00:57:05;;;;;;;65.40;26.48;;;;;;;14.32;100.00;101683.25;6103189;23;20010;-54
2023/05/09 00:59:31;;;;;;;64.45;26.27;;;;;;;14.32;100.00;101673.63;6100863;23;20673;-53
2023/05/09 01:01:56;;;;;;;65.32;26.65;;;;;;;14.36;100.00;101678.09;6085477;23;20022;-70
2023/05/09 01:07:16;;;;;;;64.60;26.00;;;;;;;14.36;100.00;101664.97;6085983;23;20029;-70
2023/05/09 01:12:38;;;;;;;64.63;25.27;;;;;;;14.44;100.00;101652.94;6081117;23;20023;-54
2023/05/09 01:15:25;;;;;;;56.78;24.50;;;;;;;14.51;100.00;101646.09;6085905;23;20014;-71
2023/05/09 01:18:02;;;;;;;63.95;25.27;;;;;;;14.52;100.00;101644.34;6080135;23;20073;-54
2023/05/09 01:20:44;;;;;;;62.55;25.45;;;;;;;14.51;100.00;101648.72;6081062;23;20033;-57
2023/05/09 01:23:33;;;;;;;63.75;25.92;;;;;;;14.51;100.00;101639.94;6061967;23;20010;-56
2023/05/09 01:26:11;;;;;;;63.72;25.75;;;;;;;14.48;100.00;101632.88;6088039;23;20010;-56
2023/05/09 01:31:11;;;;;;;61.50;25.35;;;;;;;14.49;100.00;101621.53;6100616;23;20027;-70
2023/05/09 01:33:41;;;;;;;64.93;25.55;;;;;;;14.54;100.00;101614.66;6076694;23;20017;-71
2023/05/09 01:36:15;;;;;;;63.25;25.85;;;;;;;14.56;100.00;101618.19;6072999;23;20596;-56
2023/05/09 01:38:42;;;;;;;64.57;26.02;;;;;;;14.60;100.00;101619.16;6018389;23;1093280;-70
2023/05/09 01:41:35;;;;;;;68.13;25.60;;;;;;;14.63;100.00;101610.47;6085144;23;20018;31
2023/05/09 01:44:03;;;;;;;60.97;24.42;;;;;;;14.52;100.00;101605.00;6002444;23;20016;-54
2023/05/09 01:46:29;;;;;;;60.15;26.35;;;;;;;14.42;100.00;101596.06;6005695;23;20105;-69
2023/05/09 01:48:56;;;;;;;61.78;25.58;;;;;;;14.39;100.00;101602.13;6079399;23;20510;-54
2023/05/09 01:51:23;;;;;;;61.25;25.90;;;;;;;14.38;100.00;101596.84;6082000;23;20466;-53
2023/05/09 01:53:50;;;;;;;62.75;25.45;;;;;;;14.32;100.00;101596.72;6073497;23;20488;-69
2023/05/09 01:56:17;;;;;;;67.68;25.52;;;;;;;14.31;100.00;101590.63;6085227;23;20114;-56
2023/05/09 01:58:47;;;;;;;56.97;24.10;;;;;;;14.33;100.00;101594.13;6085600;23;20018;-71
2023/05/09 02:01:13;;;;;;;56.40;24.45;;;;;;;14.33;100.00;101588.03;6078645;23;20018;-71
2023/05/09 02:03:39;;;;;;;58.20;24.30;;;;;;;14.33;100.00;101588.91;6083754;23;20027;-70
2023/05/09 02:06:05;;;;;;;55.65;23.52;;;;;;;14.34;100.00;101592.38;6082437;23;20418;-70
2023/05/09 02:08:32;;;;;;;54.58;24.45;;;;;;;14.28;100.00;101585.31;6082547;23;20128;-71
2023/05/09 02:10:57;;;;;;;50.78;23.08;;;;;;;14.26;100.00;101587.00;6087844;23;20363;-69
2023/05/09 02:13:23;;;;;;;60.70;25.13;;;;;;;14.23;100.00;101587.81;6071319;23;20026;-70
2023/05/09 02:18:20;;;;;;;57.35;23.88;;;;;;;14.06;100.00;101576.09;6088347;23;20061;-56
2023/05/09 02:20:46;;;;;;;61.83;24.25;;;;;;;14.00;100.00;101579.47;6072974;23;20014;-70
2023/05/09 02:23:11;;;;;;;56.55;23.75;;;;;;;14.01;100.00;101594.34;6086473;23;20017;-52
2023/05/09 02:25:38;;;;;;;53.42;24.98;;;;;;;14.02;100.00;101592.59;6080999;23;20255;-56
2023/05/09 02:30:43;;;;;;;56.08;23.60;;;;;;;13.98;100.00;101594.28;6088404;23;20034;-57
2023/05/09 02:33:11;;;;;;;57.38;24.45;;;;;;;14.01;100.00;101594.34;6082171;23;20018;-58
2023/05/09 02:38:08;;;;;;;57.63;24.02;;;;;;;14.06;100.00;101597.97;6084143;23;20026;-71
2023/05/09 02:40:34;;;;;;;54.90;23.75;;;;;;;14.05;100.00;101590.94;6089494;23;20017;-71
2023/05/09 02:42:59;;;;;;;58.28;24.70;;;;;;;14.00;100.00;101583.84;6088590;23;20018;-71
2023/05/09 02:45:25;;;;;;;56.72;24.27;;;;;;;13.98;100.00;101591.66;6084220;23;20018;-55
2023/05/09 02:47:50;;;;;;;60.28;24.75;;;;;;;13.99;100.00;101582.97;6084559;23;20442;-70
2023/05/09 02:50:16;;;;;;;52.92;22.65;;;;;;;14.00;100.00;101574.22;6084858;23;20042;-70
2023/05/09 02:52:42;;;;;;;60.58;24.38;;;;;;;13.94;100.00;101571.50;6084153;23;20495;-58
2023/05/09 02:55:08;;;;;;;54.40;22.88;;;;;;;13.87;100.00;101569.59;6089635;23;20006;-58
2023/05/09 02:57:33;;;;;;;52.92;23.67;;;;;;;13.87;100.00;101565.22;6088837;23;20010;-57
2023/05/09 02:59:59;;;;;;;57.28;24.63;;;;;;;13.87;100.00;101561.72;6086351;23;20078;-70
2023/05/09 03:02:24;;;;;;;53.58;23.58;;;;;;;13.86;100.00;101557.34;6079662;23;20328;-70
2023/05/09 03:04:50;;;;;;;52.70;23.13;;;;;;;13.88;100.00;101555.66;6087211;23;20030;-70
2023/05/09 03:07:15;;;;;;;56.83;24.55;;;;;;;13.85;100.00;101553.84;6080591;23;20021;-56
2023/05/09 03:09:40;;;;;;;57.97;24.80;;;;;;;13.78;100.00;101546.69;6071358;23;20015;-56
2023/05/09 03:12:06;;;;;;;54.70;24.08;;;;;;;13.77;100.00;101550.16;6086308;23;20034;-70
2023/05/09 03:14:31;;;;;;;57.05;24.77;;;;;;;13.77;100.00;101544.91;6074347;23;20014;-70
2023/05/09 03:16:56;;;;;;;52.85;23.67;;;;;;;13.78;100.00;101543.22;6083487;23;20396;-70
2023/05/09 03:26:57;;;;;;;66.00;24.73;;;;;;;13.73;100.00;101541.38;6090092;23;20022;-69
2023/05/09 03:29:22;;;;;;;61.08;25.40;;;;;;;13.76;100.00;101545.78;6089394;23;20426;-70
2023/05/09 03:31:47;;;;;;;49.03;21.20;;;;;;;13.75;100.00;101538.78;6058579;23;20006;-54
2023/05/09 03:34:13;;;;;;;54.50;23.42;;;;;;;13.74;100.00;101534.38;6093694;23;20040;-70
2023/05/09 03:36:43;;;;;;;61.90;25.02;;;;;;;13.76;100.00;101537.94;6116085;23;20014;-70
2023/05/09 03:39:08;;;;;;;;;;;;;;;13.80;100.00;101531.00;6118319;23;20763;-70
2023/05/09 03:41:35;;;;;;;79.10;31.38;;;;;;;13.77;100.00;101531.81;6090541;23;20031;-71
2023/05/09 03:46:30;;;;;;;61.35;24.90;;;;;;;13.77;100.00;101533.56;6086658;23;20026;-70
2023/05/09 03:48:55;;;;;;;46.10;20.67;;;;;;;13.74;100.00;101527.44;6088257;23;20025;-54
2023/05/09 03:51:20;;;;;;;53.65;23.58;;;;;;;13.76;100.00;101516.97;6087002;23;20042;-70
2023/05/09 03:53:46;;;;;;;55.53;23.58;;;;;;;13.76;100.00;101516.06;6070519;23;20078;-69
2023/05/09 03:56:13;;;;;;;63.05;24.45;;;;;;;13.75;100.00;101517.81;6089496;23;20030;-58
2023/05/09 03:58:38;;;;;;;52.80;23.00;;;;;;;13.72;100.00;101515.16;6110592;23;20361;-69
2023/05/09 04:01:03;;;;;;;60.60;23.95;;;;;;;13.71;100.00;101514.25;6097868;23;20010;-58
2023/05/09 04:03:29;;;;;;;53.17;22.38;;;;;;;13.71;100.00;101511.63;6118230;23;20449;-55
2023/05/09 04:05:55;;;;;;;54.05;23.27;;;;;;;13.71;100.00;101513.38;6115865;23;20013;-69
2023/05/09 04:13:21;;;;;;;67.18;25.73;;;;;;;13.51;100.00;101487.66;6096636;23;20021;-56
2023/05/09 04:18:18;;;;;;;65.88;25.05;;;;;;;13.36;100.00;101479.44;6102190;23;20029;-68
2023/05/09 04:20:44;;;;;;;59.40;24.23;;;;;;;13.31;100.00;101483.66;6116402;23;20018;-68
2023/05/09 04:23:10;;;;;;;95.72;40.85;;;;;;;13.32;100.00;101485.44;6111885;23;20093;-54
2023/05/09 04:25:36;;;;;;;63.70;28.33;;;;;;;13.38;100.00;101483.88;6076729;23;20058;-54
2023/05/09 04:28:01;;;;;;;59.38;24.42;;;;;;;13.43;100.00;101485.72;6095805;23;20021;-70
2023/05/09 04:30:26;;;;;;;55.08;22.58;;;;;;;13.46;100.00;101491.00;6111154;23;20010;-70
2023/05/09 04:32:54;;;;;;;50.97;21.58;;;;;;;13.51;100.00;101490.28;6110860;23;20018;-53
2023/05/09 04:35:19;;;;;;;49.70;21.60;;;;;;;13.56;100.00;101490.38;6113287;23;20450;-70
2023/05/09 04:37:45;;;;;;;52.17;22.42;;;;;;;13.56;100.00;101485.13;6101060;23;20014;-55
2023/05/09 04:40:11;;;;;;;56.22;22.40;;;;;;;13.56;100.00;101487.75;6115641;23;20150;-70
2023/05/09 04:42:37;;;;;;;48.00;21.30;;;;;;;13.56;100.00;101479.88;6115515;23;20354;-56
2023/05/09 04:45:03;;;;;;;45.92;20.77;;;;;;;13.58;100.00;101480.78;6107697;23;20070;-71
2023/05/09 04:47:28;;;;;;;49.28;20.88;;;;;;;13.62;100.00;101469.53;6100683;23;20042;-54
2023/05/09 04:49:53;;;;;;;51.97;21.80;;;;;;;13.65;100.00;101477.44;6079524;23;20442;-71
2023/05/09 04:54:49;;;;;;;52.75;21.48;;;;;;;13.60;100.00;101465.13;6107703;23;20040;-54
2023/05/09 05:09:52;;;;;;;46.05;20.13;;;;;;;13.72;100.00;101440.06;6071219;23;20027;-53
2023/05/09 05:12:17;;;;;;;47.92;21.13;;;;;;;13.70;100.00;101431.31;6079545;23;20125;-56
2023/05/09 05:17:21;;;;;;;45.15;18.83;;;;;;;13.70;100.00;101412.97;6083426;23;20283;-70
2023/05/09 05:19:46;;;;;;;51.95;21.17;;;;;;;13.73;100.00;101414.78;6074540;23;19999;-69
2023/05/09 05:22:11;;;;;;;53.53;21.20;;;;;;;13.71;100.00;101406.88;6068686;23;20034;-70
2023/05/09 05:24:36;;;;;;;51.55;21.60;;;;;;;13.72;100.00;101415.63;6080074;23;20027;-70
2023/05/09 05:27:02;;;;;;;48.58;20.50;;;;;;;13.71;100.00;101419.97;6084775;23;20496;-56
2023/05/09 05:29:27;;;;;;;48.42;20.10;;;;;;;13.74;100.00;101412.19;6077885;23;20042;-70
2023/05/09 05:34:22;;;;;;;50.78;21.35;;;;;;;13.80;100.00;101400.94;6062998;23;20702;-70
2023/05/09 05:36:47;;;;;;;51.75;21.63;;;;;;;13.80;100.00;101402.66;6087995;23;20015;-54
2023/05/09 05:39:13;;;;;;;59.15;21.92;;;;;;;13.84;100.00;101401.88;6087291;23;20018;-54
2023/05/09 05:41:38;;;;;;;54.50;22.67;;;;;;;13.85;100.00;101403.66;6088088;23;20437;-54
2023/05/09 05:44:03;;;;;;;46.80;20.60;;;;;;;13.86;100.00;101395.81;6085186;23;20025;-54
2023/05/09 05:46:29;;;;;;;47.30;20.70;;;;;;;13.94;100.00;101389.84;6089077;23;20427;-54
2023/05/09 05:48:55;;;;;;;48.85;20.52;;;;;;;13.99;100.00;101386.47;6085939;23;20019;-70
2023/05/09 05:51:20;;;;;;;52.35;21.40;;;;;;;14.05;100.00;101389.19;6084470;23;20003;-70
2023/05/09 05:53:46;;;;;;;48.75;20.73;;;;;;;14.11;100.00;101393.66;6084605;23;20007;-70
2023/05/09 05:56:11;;;;;;;53.13;23.48;;;;;;;14.16;100.00;101385.88;6036191;23;1082964;-54
2023/05/09 06:01:15;;;;;;;54.57;23.10;;;;;;;14.20;100.00;101392.94;6089434;23;20027;-70
2023/05/09 06:03:40;;;;;;;50.80;21.98;;;;;;;14.19;100.00;101378.06;6087177;23;20034;-54
2023/05/09 06:06:05;;;;;;;56.72;22.77;;;;;;;14.21;100.00;101382.47;6074635;23;20018;-70
2023/05/09 06:08:31;;;;;;;43.58;18.67;;;;;;;14.24;100.00;101384.28;6091582;23;20089;-70
2023/05/09 06:10:56;;;;;;;49.35;20.25;;;;;;;14.28;100.00;101367.75;6100376;23;20085;-70
2023/05/09 06:13:21;;;;;;;49.92;21.98;;;;;;;14.32;100.00;101371.28;6084395;23;20007;-70
2023/05/09 06:15:47;;;;;;;46.20;20.63;;;;;;;14.34;100.00;101370.47;6079769;23;20052;-70
2023/05/09 06:18:12;;;;;;;51.55;22.08;;;;;;;14.35;100.00;101360.84;6087048;23;20018;-56
2023/05/09 06:20:37;;;;;;;50.83;20.77;;;;;;;14.41;100.00;101358.31;6075395;23;20019;-54
2023/05/09 06:23:03;;;;;;;50.30;21.15;;;;;;;14.43;100.00;101354.84;6084134;23;20025;-56
2023/05/09 06:25:28;;;;;;;49.03;20.63;;;;;;;14.47;100.00;101362.78;6088917;23;20011;-56
2023/05/09 06:27:53;;;;;;;53.60;22.13;;;;;;;14.50;100.00;101361.09;6084438;23;20019;-55
2023/05/09 06:30:19;;;;;;;50.78;22.00;;;;;;;14.50;100.00;101352.34;6084071;23;20030;-54
2023/05/09 06:32:44;;;;;;;49.83;21.48;;;;;;;14.52;100.00;101358.50;6074263;23;20025;-56
2023/05/09 06:35:09;;;;;;;49.88;22.67;;;;;;;14.54;100.00;101356.75;6087150;23;20089;-70
2023/05/09 06:37:35;;;;;;;44.13;19.48;;;;;;;14.58;100.00;101359.47;6088847;23;19998;-70
2023/05/09 06:40:00;;;;;;;52.08;22.52;;;;;;;14.63;100.00;101356.06;6084044;23;20530;-54
2023/05/09 06:42:27;;;;;;;44.60;20.88;;;;;;;14.64;100.00;101350.84;6066416;23;20034;-54
2023/05/09 06:44:52;;;;;;;41.35;18.63;;;;;;;14.68;98.94;101350.03;6089049;23;20011;-54
2023/05/09 06:47:17;;;;;;;51.22;21.42;;;;;;;14.74;100.00;101350.13;6086394;23;20411;-69
2023/05/09 06:49:42;;;;;;;53.03;21.58;;;;;;;14.75;100.00;101349.25;6085656;23;20331;-55
2023/05/09 06:54:40;;;;;;;49.28;21.70;;;;;;;14.81;100.00;101340.59;6075187;23;20037;-70
2023/05/09 06:57:05;;;;;;;47.47;22.23;;;;;;;14.83;100.00;101333.66;6095445;23;20015;-70
2023/05/09 07:02:05;;;;;;;44.58;21.23;;;;;;;14.89;99.88;101327.59;6082795;23;20030;-70
2023/05/09 07:04:31;;;;;;;50.05;21.48;;;;;;;14.92;99.36;101327.63;6087149;23;20098;-56
2023/05/09 07:09:27;;;;;;;;;;;;;;;15.02;99.73;101324.28;6061804;23;20031;-55
2023/05/09 07:11:54;;;;;;;56.25;20.70;;;;;;;15.04;99.56;101322.53;6086385;23;20264;-55
2023/05/09 07:14:20;;;;;;;47.00;20.63;;;;;;;15.03;98.14;101318.13;6075824;23;20045;-70
2023/05/09 07:16:45;;;;;;;44.05;20.45;;;;;;;15.04;97.95;101316.41;6086793;23;20022;-56
2023/05/09 07:19:11;;;;;;;45.35;21.67;;;;;;;15.01;97.96;101317.25;6082397;23;20330;-56
2023/05/09 07:21:36;;;;;;;46.72;21.55;;;;;;;15.02;97.84;101316.41;6085690;23;20073;-55
2023/05/09 07:24:02;;;;;;;44.83;20.60;;;;;;;15.06;98.86;101319.94;6078419;23;20489;-58
2023/05/09 07:28:59;;;;;;;47.38;20.63;;;;;;;15.07;98.20;101308.56;6069202;23;21047;-55
2023/05/09 07:31:25;;;;;;;39.28;19.25;;;;;;;15.07;97.56;101301.56;6067908;23;20022;-56
2023/05/09 07:38:51;;;;;;;44.92;20.90;;;;;;;15.02;97.33;101316.41;6083620;23;20035;-55
2023/05/09 07:41:17;;;;;;;42.40;20.52;;;;;;;14.99;97.42;101313.75;6089068;23;20015;-55
2023/05/09 07:43:42;;;;;;;39.05;20.90;;;;;;;14.98;98.69;101313.72;6086618;23;20054;-70
2023/05/09 07:46:07;;;;;;;38.33;19.55;;;;;;;14.91;99.08;101312.75;6079281;23;20028;-70
2023/05/09 07:48:33;;;;;;;38.42;18.67;;;;;;;14.90;99.17;101313.59;6084705;23;20454;-56
2023/05/09 07:50:58;;;;;;;43.03;19.77;;;;;;;14.80;100.00;101302.09;6084400;23;20019;-56
2023/05/09 07:53:23;;;;;;;41.47;19.20;;;;;;;14.78;100.00;101306.44;6082169;23;20038;-70
2023/05/09 07:55:49;;;;;;;38.97;19.38;;;;;;;14.74;100.00;101302.03;6085409;23;20018;-55
2023/05/09 07:58:15;;;;;;;44.30;20.42;;;;;;;14.72;100.00;101298.50;6070256;23;20014;-70
2023/05/09 08:00:41;;;;;;;41.55;20.48;;;;;;;14.67;100.00;101298.44;6089466;23;20038;-70
2023/05/09 08:05:38;;;;;;;40.58;20.15;;;;;;;14.64;100.00;101287.88;6067793;23;20022;-70
2023/05/09 08:08:03;;;;;;;42.40;20.20;;;;;;;14.61;100.00;101285.19;6087857;23;20018;-71
2023/05/09 08:10:29;;;;;;;42.30;20.77;;;;;;;14.61;100.00;101282.56;6080663;23;20015;-54
2023/05/09 08:12:55;;;;;;;40.42;20.02;;;;;;;14.63;100.00;101273.03;6083760;23;20010;-54
2023/05/09 08:15:21;;;;;;;38.65;18.77;;;;;;;14.65;100.00;101276.53;6084266;23;20025;-55
2023/05/09 08:17:46;;;;;;;35.20;18.17;;;;;;;14.66;100.00;101266.97;6087443;23;20113;-54
2023/05/09 08:20:12;;;;;;;34.72;17.30;;;;;;;14.64;100.00;101271.28;6082849;23;20029;-54
2023/05/09 08:32:32;;;;;;;32.15;17.02;;;;;;;14.73;100.00;101246.06;6069683;23;20034;-71
2023/05/09 08:34:57;;;;;;;32.00;16.23;;;;;;;14.80;100.00;101243.50;6085980;23;20040;-71
2023/05/09 08:37:22;;;;;;;34.70;16.88;;;;;;;14.83;100.00;101239.19;6083664;23;20022;-71
2023/05/09 08:42:27;;;;;;;37.40;17.55;;;;;;;14.80;100.00;101240.88;6085002;23;20034;-54
2023/05/09 08:44:52;;;;;;;34.15;17.30;;;;;;;14.80;100.00;101233.88;6082561;23;20017;-55
2023/05/09 08:47:19;;;;;;;33.83;17.48;;;;;;;14.86;100.00;101235.69;6088271;23;20085;-54
2023/05/09 08:49:45;;;;;;;38.72;18.98;;;;;;;14.86;100.00;101238.31;6083890;23;20137;-73
2023/05/09 08:52:11;;;;;;;38.85;19.75;;;;;;;14.81;100.00;101232.16;6092708;23;20038;-72
2023/05/09 08:57:06;;;;;;;38.92;20.83;;;;;;;14.74;100.00;101229.47;6087092;23;20022;-95
2023/05/09 08:59:35;;;;;;;39.05;20.30;;;;;;;14.77;100.00;101232.13;6114924;23;20010;-96
2023/05/09 09:07:04;;;;;;;45.00;20.75;;;;;;;14.79;100.00;101216.41;6079237;23;20033;-56
2023/05/09 09:09:31;;;;;;;43.83;19.10;;;;;;;14.80;100.00;101222.53;6085770;23;20097;-71
2023/05/09 09:11:57;;;;;;;33.47;16.95;;;;;;;14.76;100.00;101227.72;6078200;23;20022;-56
2023/05/09 09:14:26;;;;;;;31.65;14.95;;;;;;;14.70;100.00;101222.41;6105860;23;20019;-71
2023/05/09 09:22:01;;;;;;;28.45;13.00;;;;;;;14.65;100.00;101213.59;6057786;23;20477;-70
2023/05/09 09:24:26;;;;;;;25.77;12.48;;;;;;;14.62;100.00;101213.56;6078602;23;20494;-58
2023/05/09 09:26:51;;;;;;;23.98;11.50;;;;;;;14.54;100.00;101216.06;6085364;23;20024;-71
2023/05/09 09:29:18;;;;;;;24.00;12.00;;;;;;;14.42;100.00;101214.16;6083689;23;20033;-71
2023/05/09 09:31:45;;;;;;;25.55;12.02;;;;;;;14.39;100.00;101213.22;6092027;23;20314;-71
2023/05/09 09:34:13;;;;;;;24.77;11.07;;;;;;;14.41;100.00;101209.78;6088963;23;20516;-71
2023/05/09 09:39:08;;;;;;;26.73;11.23;;;;;;;14.39;100.00;101200.97;6080250;23;20023;-71
2023/05/09 09:41:35;;;;;;;21.23;11.00;;;;;;;14.39;100.00;101200.13;6079303;23;20038;-57
2023/05/09 09:44:11;;;;;;;21.05;10.38;;;;;;;14.38;100.00;101199.25;6099446;23;20038;-71
2023/05/09 09:49:03;;;;;;;21.98;10.50;;;;;;;14.41;100.00;101193.13;6101511;23;20068;-71
2023/05/09 09:51:28;;;;;;;21.85;11.00;;;;;;;14.41;100.00;101193.13;6077266;23;20284;-57
2023/05/09 09:56:41;;;;;;;23.35;11.73;;;;;;;14.41;100.00;101188.78;6079957;23;20026;-57
2023/05/09 10:01:31;;;;;;;28.63;13.38;;;;;;;14.51;100.00;101179.31;6085878;23;20022;-71
2023/05/09 10:04:01;;;;;;;29.95;12.80;;;;;;;14.57;100.00;101173.25;6097069;23;20006;-71
2023/05/09 10:08:56;;;;;;;24.90;11.82;;;;;;;14.61;100.00;101169.78;6083505;23;20018;-71
2023/05/09 10:14:01;;;;;;;26.10;13.02;;;;;;;14.54;100.00;101167.97;6088057;23;20375;-58
2023/05/09 10:18:57;;;;;;;29.55;13.38;;;;;;;14.55;100.00;101169.72;6032709;23;20027;-57
2023/05/09 10:21:23;;;;;;;28.50;12.90;;;;;;;14.51;100.00;101168.81;6054452;23;20033;-58
2023/05/09 10:23:51;;;;;;;26.85;12.48;;;;;;;14.54;100.00;101162.72;6078342;23;20071;-58
2023/05/09 10:26:18;;;;;;;28.25;13.57;;;;;;;14.48;100.00;101158.28;6090498;23;20007;-58
2023/05/09 10:28:45;;;;;;;23.95;11.48;;;;;;;14.44;100.00;101157.38;6079157;23;20024;-58
2023/05/09 10:33:57;;;;;;;28.40;12.73;;;;;;;14.44;100.00;101156.50;6080830;23;20041;-58
2023/05/09 10:36:23;;;;;;;29.15;12.70;;;;;;;14.47;100.00;101155.63;6085504;23;20029;-72
2023/05/09 10:38:54;;;;;;;30.63;13.73;;;;;;;14.54;100.00;101152.22;6084482;23;20018;-71
2023/05/09 10:41:20;;;;;;;31.55;13.85;;;;;;;14.56;100.00;101147.91;6099270;23;20018;-96
2023/05/09 10:43:48;;;;;;;29.63;13.70;;;;;;;14.50;100.00;101140.84;6101653;23;20010;-96
2023/05/09 10:46:15;;;;;;;29.92;13.75;;;;;;;14.49;100.00;101136.44;6103678;23;20058;-96
2023/05/09 10:48:44;;;;;;;31.13;15.18;;;;;;;14.42;100.00;101138.13;6105273;23;20006;-96
2023/05/09 10:51:16;;;;;;;32.75;14.30;;;;;;;14.41;100.00;101136.34;6106274;23;20038;-96
2023/05/09 10:53:47;;;;;;;37.28;14.13;;;;;;;14.41;100.00;101131.13;6081768;23;20002;-96
2023/05/09 10:56:31;;;;;;;30.90;14.13;;;;;;;14.41;100.00;101128.50;6078900;23;20013;-96
2023/05/09 10:58:58;;;;;;;32.20;14.68;;;;;;;14.36;100.00;101127.53;6077186;23;20094;-96
2023/05/09 11:01:37;;;;;;;34.08;14.60;;;;;;;14.35;100.00;101125.81;6076291;23;19999;-96
2023/05/09 11:04:15;;;;;;;30.85;15.00;;;;;;;14.41;100.00;101119.72;6075200;23;20022;-96
2023/05/09 11:06:42;;;;;;;33.50;14.63;;;;;;;14.40;100.00;101128.47;6077705;23;20020;-96
2023/05/09 11:09:40;;;;;;;38.05;15.57;;;;;;;14.38;100.00;101119.69;6074954;23;20096;-96
2023/05/09 11:12:14;;;;;;;37.58;16.13;;;;;;;14.37;100.00;101116.22;6057672;23;20030;-96
2023/05/09 11:14:45;;;;;;;37.80;16.90;;;;;;;14.37;100.00;101116.22;6074877;23;20066;-96
2023/05/09 11:17:14;;;;;;;39.22;16.90;;;;;;;14.35;100.00;101107.47;6074585;23;20348;-96
2023/05/09 11:19:45;;;;;;;36.00;15.27;;;;;;;14.37;100.00;101102.22;6076869;23;20009;-96
2023/05/09 11:22:18;;;;;;;33.92;15.38;;;;;;;14.32;100.00;101109.16;6076397;23;20085;-96
2023/05/09 11:24:51;;;;;;;34.88;15.02;;;;;;;14.26;100.00;101115.19;6075591;23;20014;-96
2023/05/09 11:27:24;;;;;;;31.35;13.13;;;;;;;14.21;100.00;101107.28;6075873;23;20002;-96
2023/05/09 11:29:57;;;;;;;31.33;14.07;;;;;;;14.20;100.00;101102.88;6077048;23;20007;-96
2023/05/09 11:32:29;;;;;;;28.30;13.55;;;;;;;14.20;100.00;101100.25;6076583;23;20006;-96
2023/05/09 11:35:27;;;;;;;35.63;14.75;;;;;;;14.18;100.00;101095.84;6074451;23;20508;-96
2023/05/09 11:38:01;;;;;;;30.25;13.43;;;;;;;14.18;100.00;101088.88;6039573;23;20038;-96
2023/05/09 11:40:34;;;;;;;29.63;13.38;;;;;;;14.13;100.00;101093.19;6111778;23;19987;-96
2023/05/09 11:43:00;;;;;;;33.17;14.23;;;;;;;14.13;100.00;101087.06;6071312;23;20018;-96
2023/05/09 11:45:28;;;;;;;29.23;12.63;;;;;;;14.14;100.00;101078.34;6072538;23;20003;-96
2023/05/09 11:47:55;;;;;;;27.65;12.13;;;;;;;14.14;100.00;101079.22;6071628;23;20008;-96
2023/05/09 11:50:21;;;;;;;24.35;11.20;;;;;;;14.09;100.00;101076.56;6072311;23;20014;-96
2023/05/09 11:52:48;;;;;;;24.45;12.73;;;;;;;14.15;100.00;101077.47;6071327;23;20013;-96
2023/05/09 11:55:15;;;;;;;25.08;12.50;;;;;;;14.13;100.00;101080.06;6071625;23;20085;-96
2023/05/09 11:57:48;;;;;;;26.20;12.73;;;;;;;14.16;100.00;101068.75;6071398;23;20002;-96
2023/05/09 12:02:44;;;;;;;20.83;10.85;;;;;;;14.07;100.00;101069.53;6088577;23;20042;-72
2023/05/09 12:05:12;;;;;;;22.30;9.68;;;;;;;14.05;100.00;101069.50;6087538;23;20006;-72
2023/05/09 12:07:38;;;;;;;20.38;9.57;;;;;;;14.01;100.00;101064.22;6096193;23;20038;-96
2023/05/09 12:10:22;;;;;;;22.85;10.27;;;;;;;13.98;100.00;101059.81;6071630;23;20013;-96
2023/05/09 12:12:49;;;;;;;20.60;9.98;;;;;;;14.00;100.00;101055.44;6073661;23;20013;-96
2023/05/09 12:15:16;;;;;;;23.95;11.27;;;;;;;13.96;100.00;101065.88;6072968;23;20087;-96
2023/05/09 12:17:42;;;;;;;25.10;11.60;;;;;;;13.97;100.00;101058.03;6074659;23;20003;-96
2023/05/09 12:20:08;;;;;;;24.00;11.70;;;;;;;14.00;100.00;101055.44;6097784;23;20038;-96
2023/05/09 12:22:36;;;;;;;25.00;11.90;;;;;;;13.99;100.00;101048.47;6097426;23;20006;-96
2023/05/09 12:25:09;;;;;;;25.80;11.80;;;;;;;13.99;100.00;101051.09;6072858;23;20018;-96
2023/05/09 12:27:36;;;;;;;26.15;11.90;;;;;;;13.94;100.00;101044.91;6075423;23;20033;-96
2023/05/09 12:30:07;;;;;;;29.55;12.95;;;;;;;13.99;100.00;101044.97;6078627;23;20630;-96
2023/05/09 12:32:35;;;;;;;26.67;12.25;;;;;;;14.01;100.00;101040.63;6077742;23;20053;-96
2023/05/09 12:35:01;;;;;;;26.50;12.43;;;;;;;14.01;100.00;101041.50;6101684;23;20002;-96
2023/05/09 12:37:31;;;;;;;32.33;13.60;;;;;;;14.04;100.00;101032.81;6077622;23;20012;-96
2023/05/09 12:40:14;;;;;;;24.20;11.70;;;;;;;14.01;100.00;101036.25;6087514;23;20018;-96
2023/05/09 12:42:43;;;;;;;24.90;11.27;;;;;;;14.04;100.00;101032.81;6097671;23;19998;-96
2023/05/09 12:45:09;;;;;;;25.40;12.60;;;;;;;14.05;100.00;101039.81;6080298;23;20018;-73
2023/05/09 12:47:37;;;;;;;27.70;12.57;;;;;;;14.07;100.00;101025.84;6100637;23;19994;-96
2023/05/09 12:50:07;;;;;;;29.95;13.35;;;;;;;14.04;100.00;101023.19;6120044;23;20026;-96
2023/05/09 12:52:38;;;;;;;28.15;13.48;;;;;;;14.05;100.00;101024.97;6094395;23;19994;-96
2023/05/09 12:55:08;;;;;;;26.52;12.57;;;;;;;14.09;100.00;101018.00;6115004;23;19994;-96
2023/05/09 12:57:34;;;;;;;28.10;12.07;;;;;;;14.13;100.00;101013.69;6095317;23;20058;-96
2023/05/09 13:00:03;;;;;;;26.65;12.15;;;;;;;14.12;100.00;101017.16;6094910;23;20015;-96
2023/05/09 13:02:49;;;;;;;28.00;12.48;;;;;;;14.17;100.00;101023.34;6110821;23;20090;-96
2023/05/09 13:05:19;;;;;;;28.70;12.90;;;;;;;14.21;100.00;101023.41;6070336;23;20014;-96
2023/05/09 13:07:51;;;;;;;31.35;14.10;;;;;;;14.22;100.00;101011.16;6072861;23;20016;-96
2023/05/09 13:10:20;;;;;;;28.17;14.15;;;;;;;14.22;100.00;101011.16;6073917;23;20006;-96
2023/05/09 13:12:50;;;;;;;32.35;15.13;;;;;;;14.18;100.00;101004.13;6074774;23;20619;-96
2023/05/09 13:15:36;;;;;;;28.85;14.10;;;;;;;14.22;100.00;101005.94;6078237;23;20002;-96